METAR

METAR LDZA 220230Z 04014KT 3000 -SN BKN012 OVC033 M00/M02 Q1012 R05/////// NOSIG =
METAR LDSP 220230Z AUTO 06011KT 9999 RA SCT021/// BKN029/// BKN039/// 07/04 Q1002=
METAR LDDU 220230Z 11016KT 9999 FEW040 08/07 Q1002 =
METAR LDZD 220230Z 08013KT 040V120 9999 -RA FEW020 SCT030 OVC050 04/00 Q1001 =
METAR LDPL 220230Z AUTO 08027G37KT 9999 -RA FEW019/// BKN027/// OVC031/// 06/M00 Q1003=
METAR LDOS 220230Z 07013KT 9999 -SN OVC003 01/00 Q1012
      R11/29//95=
METAR LDRI 220230Z 08020G50KT 040V130 9999 -RA FEW023 SCT036 BKN066
05/M04 Q1005=

TAF

TAF LDZA 212325Z 2200/2300 03015KT 6000 SCT010 OVC030
                 TX01/2213Z TNM01/2205Z
           TEMPO 2200/2300 3000 -SN BKN005 OVC020
    PROB40 TEMPO 2202/2212 0800 SN OVC003=
TAF LDSP 212325Z 2200/2300 05012KT 9999 BKN040
                 TX10/2213Z TN05/2203Z
           TEMPO 2200/2300 RA
           BECMG 2203/2205 10008KT
    PROB30 TEMPO 2213/2219 SHRA FEW027TCU BKN030=
TAF LDDU 212325Z 2200/2300 12012KT 9999 BKN040
                 TX11/2213Z TN08/2206Z
    PROB30 TEMPO 2200/2300 RA=
TAF LDZD 212325Z 2200/2300 06014KT 9999 BKN045
                 TX09/2212Z TN02/2223Z
    PROB30 TEMPO 2200/2206 07018G28KT
           TEMPO 2200/2300 RA
           TEMPO 2210/2300 06015G25KT=
TAF AMD LDPL 220242Z 2202/2300 07020G35KT 9999 SCT020 BKN035
                     TX06/2213Z TN02/2223Z
               TEMPO 2203/2212 07030G45KT
        PROB40 TEMPO 2203/2209 RA
        PROB40 TEMPO 2212/2300 07018KT=
TAF LDOS 212325Z 2200/2300 06010KT 6000 SCT010 OVC025
                 TX02/2214Z TN00/2205Z
           TEMPO 2200/2300 3000 -RASN BKN005 OVC020
    PROB40 TEMPO 2202/2212 1000 SN BKN003 OVC015=
TAF LDRI 212325Z 2200/2300 05020G30KT 9999 BKN030
                 TX06/2212Z TN02/2205Z
           TEMPO 2200/2210 05030G50KT
           TEMPO 2200/2209 RA=

SIGMET

LDZO SIGMET 1 VALID 220200/220600 LDZA-
LDZO ZAGREB FIR SEV TURB FCST WI N4535 E01431 - N4355 E01626 - N4330
E01539 - N4533 E01306 - N4535 E01431 SFC/6000FT STNR NC=
LDZO SIGMET 2 VALID 220200/220600 LDZA-
LDZO ZAGREB FIR SEV ICE OBS WI N4631 E01625 - N4547 E01749 - N4509
E01724 - N4502 E01618 - N4530 E01456 - N4613 E01539 - N4631 E01625
3000/10000FT STNR NC=

AIRMET

LDZO AIRMET 1 VALID 220200/220330 LDZA-
LDZO ZAGREB FIR BKN CLD 500/10000FT OBS WI N4630 E01624 - N4555
E01850 - N4513 E01925 - N4453 E01857 - N4401 E01623 - N4431 E01507 -
N4529 E01403 - N4630 E01624 STNR NC=
LDZO AIRMET 2 VALID 220200/220600 LDZA-
LDZO ZAGREB FIR MOD TURB FCST WI N4638 E01627 - N4547 E01749 - N4508
E01732 - N4400 E01626 - N4537 E01433 - N4638 E01627 SFC/5000FT STNR
NC=
LDZO AIRMET 3 VALID 220200/220600 LDZA-
LDZO ZAGREB FIR MOD ICE FCST SE OF LINE N4334 E01425 - N4415 E01518
- N4400 E01631 ABV 5000FT STNR NC=
LDZO AIRMET 4 VALID 220200/220600 LDZA-
LDZO ZAGREB FIR MOD ICE FCST WI N4633 E01626 - N4603 E01919 - N4447
E01931 - N4405 E01618 - N4416 E01517 - N4534 E01420 - N4633 E01626
ABV 500FT STNR NC=
LDZO AIRMET 5 VALID 220200/220600 LDZA-
LDZO ZAGREB FIR MT OBSC OBS WI N4638 E01634 - N4516 E01819 - N4222
E01833 - N4428 E01506 - N4527 E01358 - N4638 E01634 ABV 2000FT STNR
NC=
LDZO AIRMET 6 VALID 220200/220600 LDZA-
LDZO ZAGREB FIR SFC VIS 2000M SN OBS WI N4641 E01635 - N4549 E01745
- N4416 E01534 - N4528 E01418 - N4641 E01635 STNR NC=

Napomena

Ukoliko se brzina i smjer vjetra ne mogu odrediti zbog privremenog kvara sustava/indikatora,
informacija o vjetru u METAR izvješću bit će prikazana kao "/////KT".

 

Disclaimer

 

In case of temporary system/sensor failure, wind speed and direction data will be represented as "/////KT" in METAR report.

 

         

      Politika MET podataka